Time;durP1;ratioP1;P1;durP2;ratioP2;P2;SDS_P1;SDS_P2;PMS_P1;PMS_P2;Temp;Humidity;BMP_temperature;BMP_pressure;BME280_temperature;BME280_humidity;BME280_pressure;Samples;Min_cycle;Max_cycle;Signal;HPM_P1;HPM_P2
2023/08/07 03:01:03;;;;;;;;;;;13.80;99.90;;;;;;5731352;23;19926;-79
2023/08/07 03:03:29;;;;;;;;;;;13.90;99.90;;;;;;4995724;28;19945;-80
2023/08/07 03:05:54;;;;;;;;;;;13.90;99.90;;;;;;4979455;28;19921;-78
2023/08/07 03:08:20;;;;;;;;;;;13.80;99.90;;;;;;4995132;28;19932;-80
2023/08/07 03:11:04;;;;;;;;;;;13.90;99.90;;;;;;4996767;28;19922;-80
2023/08/07 03:13:29;;;;;;;;;;;13.90;99.90;;;;;;4995100;28;19960;-80
2023/08/07 03:16:02;;;;;;;;;;;13.90;99.90;;;;;;4995712;28;19957;-79
2023/08/07 03:18:28;;;;;;;;;;;13.90;99.90;;;;;;4995286;28;20435;-78
2023/08/07 03:20:54;;;;;;;;;;;13.90;99.90;;;;;;4996056;28;19925;-77
2023/08/07 03:23:19;;;;;;;;;;;13.90;99.90;;;;;;4978930;28;19921;-77
2023/08/07 03:25:45;;;;;;;;;;;13.90;99.90;;;;;;4995124;28;20404;-80
2023/08/07 03:28:10;;;;;;;;;;;13.90;99.90;;;;;;4995152;28;19955;-79
2023/08/07 03:30:37;;;;;;;;;;;13.90;99.90;;;;;;4994510;28;19921;-79
2023/08/07 03:33:03;;;;;;;;;;;14.00;99.90;;;;;;4994761;28;20336;-80
2023/08/07 03:35:28;;;;;;;;;;;14.00;99.90;;;;;;4996099;28;19922;-80
2023/08/07 03:37:54;;;;;;;;;;;14.00;99.90;;;;;;4994287;28;19926;-78
2023/08/07 03:40:20;;;;;;;;;;;14.00;99.90;;;;;;4995700;28;19996;-80
2023/08/07 03:42:46;;;;;;;;;;;14.00;99.90;;;;;;4995187;28;19922;-81
2023/08/07 03:45:12;;;;;;;;;;;14.00;99.90;;;;;;4995123;28;19921;-81
2023/08/07 03:47:37;;;;;;;;;;;14.10;99.90;;;;;;4994525;28;19926;-79
2023/08/07 03:50:03;;;;;;;;;;;14.10;99.90;;;;;;4995694;28;19922;-81
2023/08/07 03:52:28;;;;;;;;;;;14.00;99.90;;;;;;4994591;28;19922;-81
2023/08/07 03:54:54;;;;;;;;;;;14.10;99.90;;;;;;4978187;28;19944;-80
2023/08/07 03:57:19;;;;;;;;;;;14.00;99.90;;;;;;4996058;28;19926;-80
2023/08/07 03:59:45;;;;;;;;;;;14.10;99.90;;;;;;4996065;28;19926;-80
2023/08/07 04:02:11;;;;;;;;;;;14.10;99.90;;;;;;4993976;28;19953;-80
2023/08/07 04:04:37;;;;;;;;;;;14.10;99.90;;;;;;4994073;28;19922;-80
2023/08/07 04:07:03;;;;;;;;;;;14.10;99.90;;;;;;4995456;28;19992;-82
2023/08/07 04:09:28;;;;;;;;;;;14.00;99.90;;;;;;4978099;28;19987;-81
2023/08/07 04:11:54;;;;;;;;;;;14.10;99.90;;;;;;4995371;28;19921;-81
2023/08/07 04:14:20;;;;;;;;;;;14.10;99.90;;;;;;4978858;28;19968;-82
2023/08/07 04:16:46;;;;;;;;;;;14.00;99.90;;;;;;4994780;28;19972;-82
2023/08/07 04:19:12;;;;;;;;;;;14.00;99.90;;;;;;4995383;28;19925;-81
2023/08/07 04:21:37;;;;;;;;;;;14.10;99.90;;;;;;4994073;28;19922;-82
2023/08/07 04:24:10;;;;;;;;;;;14.00;99.90;;;;;;4996358;28;19922;-82
2023/08/07 04:26:35;;;;;;;;;;;14.00;99.90;;;;;;4989250;28;19925;-81
2023/08/07 04:29:01;;;;;;;;;;;14.10;99.90;;;;;;4994354;28;19928;-82
2023/08/07 04:31:27;;;;;;;;;;;14.00;99.90;;;;;;4995814;28;19922;-82
2023/08/07 04:33:55;;;;;;;;;;;14.00;99.90;;;;;;4994405;28;20285;-83
2023/08/07 04:36:24;;;;;;;;;;;14.10;99.90;;;;;;4995716;28;19921;-81
2023/08/07 04:39:03;;;;;;;;;;;14.10;99.90;;;;;;4977571;28;19969;-82
2023/08/07 04:41:39;;;;;;;;;;;14.10;99.90;;;;;;4995307;28;19929;-81
2023/08/07 04:44:25;;;;;;;;;;;14.10;99.90;;;;;;4978050;28;20022;-82
2023/08/07 04:46:50;;;;;;;;;;;14.10;99.90;;;;;;4990765;28;19933;-81
2023/08/07 04:49:19;;;;;;;;;;;14.10;99.90;;;;;;4978082;28;19922;-82
2023/08/07 04:54:35;;;;;;;;;;;14.10;99.90;;;;;;4978274;28;19921;-82
2023/08/07 04:57:00;;;;;;;;;;;14.00;99.90;;;;;;4995720;28;20012;-81
2023/08/07 04:59:26;;;;;;;;;;;14.00;99.90;;;;;;4996113;28;19965;-83
2023/08/07 05:01:52;;;;;;;;;;;14.00;99.90;;;;;;4978785;28;19944;-82
2023/08/07 05:04:26;;;;;;;;;;;14.00;99.90;;;;;;4994472;28;20388;-81
2023/08/07 05:06:52;;;;;;;;;;;14.00;99.90;;;;;;4978563;28;19933;-82
2023/08/07 05:09:27;;;;;;;;;;;14.00;99.90;;;;;;4978104;28;19925;-83
2023/08/07 05:12:00;;;;;;;;;;;14.00;99.90;;;;;;4994822;28;19922;-82
2023/08/07 05:14:25;;;;;;;;;;;14.00;99.90;;;;;;4979237;28;19980;-85
2023/08/07 05:16:51;;;;;;;;;;;14.00;99.90;;;;;;4993858;28;20285;-81
2023/08/07 05:19:16;;;;;;;;;;;14.00;99.90;;;;;;4977536;28;19925;-79
2023/08/07 05:21:42;;;;;;;;;;;14.00;99.90;;;;;;4994525;28;19922;-77
2023/08/07 05:24:07;;;;;;;;;;;13.90;99.90;;;;;;4977876;28;19945;-81
2023/08/07 05:26:33;;;;;;;;;;;13.90;99.90;;;;;;4993344;28;19922;-78
2023/08/07 05:28:58;;;;;;;;;;;13.90;99.90;;;;;;4993700;28;19985;-78
2023/08/07 05:31:24;;;;;;;;;;;13.90;99.90;;;;;;4993244;28;20340;-81
2023/08/07 05:33:50;;;;;;;;;;;13.90;99.90;;;;;;4994568;28;19922;-76
2023/08/07 05:36:15;;;;;;;;;;;14.00;99.90;;;;;;4977670;28;19922;-79
2023/08/07 05:38:41;;;;;;;;;;;14.00;99.90;;;;;;4993306;28;20271;-78
2023/08/07 05:41:08;;;;;;;;;;;14.10;99.90;;;;;;4961236;28;20290;-78
2023/08/07 05:43:33;;;;;;;;;;;14.00;99.90;;;;;;4995790;28;19922;-79
2023/08/07 05:45:59;;;;;;;;;;;14.10;99.90;;;;;;4996681;28;19921;-78
2023/08/07 05:48:25;;;;;;;;;;;14.10;99.90;;;;;;4997642;28;19972;-80
2023/08/07 05:50:51;;;;;;;;;;;14.10;99.90;;;;;;4997954;28;19926;-80
2023/08/07 05:53:16;;;;;;;;;;;14.10;99.90;;;;;;5000102;28;20376;-78
2023/08/07 05:55:42;;;;;;;;;;;14.10;99.90;;;;;;4999765;28;19929;-78
2023/08/07 05:58:07;;;;;;;;;;;14.10;99.90;;;;;;5014427;28;19985;-76
2023/08/07 06:00:33;;;;;;;;;;;14.10;99.90;;;;;;4996024;28;19929;-77
2023/08/07 06:02:59;;;;;;;;;;;14.10;99.90;;;;;;4994535;28;20316;-77
2023/08/07 06:05:24;;;;;;;;;;;14.20;99.90;;;;;;4997437;28;19964;-75
2023/08/07 06:07:50;;;;;;;;;;;14.20;99.90;;;;;;4997290;28;20353;-77
2023/08/07 06:10:15;;;;;;;;;;;14.20;99.90;;;;;;4999150;28;19993;-80
2023/08/07 06:12:41;;;;;;;;;;;14.20;99.90;;;;;;4999826;28;19922;-77
2023/08/07 06:15:07;;;;;;;;;;;14.20;99.90;;;;;;5016942;28;19925;-81
2023/08/07 06:17:32;;;;;;;;;;;14.20;99.90;;;;;;4999336;28;20304;-80
2023/08/07 06:19:58;;;;;;;;;;;14.20;99.90;;;;;;5003877;28;19972;-80
2023/08/07 06:22:24;;;;;;;;;;;14.20;99.90;;;;;;4981719;28;19949;-77
2023/08/07 06:24:50;;;;;;;;;;;14.20;99.90;;;;;;4979617;28;19921;-78
2023/08/07 06:27:15;;;;;;;;;;;14.30;99.90;;;;;;4980440;28;19934;-80
2023/08/07 06:29:41;;;;;;;;;;;14.20;99.90;;;;;;4963832;28;19921;-76
2023/08/07 06:32:07;;;;;;;;;;;14.30;99.90;;;;;;4979869;28;19922;-79
2023/08/07 06:34:32;;;;;;;;;;;14.30;99.90;;;;;;4980188;28;19922;-78
2023/08/07 06:36:58;;;;;;;;;;;14.30;99.90;;;;;;4997182;28;19929;-80
2023/08/07 06:39:24;;;;;;;;;;;14.30;99.90;;;;;;4996770;28;19921;-80
2023/08/07 06:41:50;;;;;;;;;;;14.30;99.90;;;;;;4979347;28;19921;-80
2023/08/07 06:44:15;;;;;;;;;;;14.30;99.90;;;;;;4979554;28;19926;-79
2023/08/07 06:46:41;;;;;;;;;;;14.30;99.90;;;;;;4979149;28;19922;-80
2023/08/07 06:49:06;;;;;;;;;;;14.30;99.90;;;;;;4979768;28;19921;-82
2023/08/07 06:51:32;;;;;;;;;;;14.30;99.90;;;;;;4997147;28;19929;-77
2023/08/07 06:53:57;;;;;;;;;;;14.30;99.90;;;;;;4996373;28;19926;-79
2023/08/07 06:56:23;;;;;;;;;;;14.30;99.90;;;;;;4979185;28;19926;-79
2023/08/07 06:58:49;;;;;;;;;;;14.30;99.90;;;;;;4996803;28;19921;-82
2023/08/07 07:01:15;;;;;;;;;;;14.30;99.90;;;;;;4996590;28;20090;-78
2023/08/07 07:03:40;;;;;;;;;;;14.30;99.90;;;;;;4979182;28;20339;-79
2023/08/07 07:06:06;;;;;;;;;;;14.30;99.90;;;;;;4979071;28;20292;-77
2023/08/07 07:08:31;;;;;;;;;;;14.30;99.90;;;;;;4996526;28;20387;-78
2023/08/07 07:11:00;;;;;;;;;;;14.40;99.90;;;;;;4995932;28;19926;-80
2023/08/07 07:13:29;;;;;;;;;;;14.40;99.90;;;;;;4963157;28;19928;-78
2023/08/07 07:15:55;;;;;;;;;;;14.50;99.90;;;;;;4996071;28;19934;-79
2023/08/07 07:19:00;;;;;;;;;;;14.50;99.90;;;;;;4962976;28;19926;-77
2023/08/07 07:21:35;;;;;;;;;;;14.50;99.90;;;;;;4959929;23;19926;-77
2023/08/07 07:24:02;;;;;;;;;;;14.60;99.90;;;;;;5035713;28;19928;-77
2023/08/07 07:26:27;;;;;;;;;;;14.60;99.90;;;;;;5011768;28;19968;-75
2023/08/07 07:28:53;;;;;;;;;;;14.70;99.90;;;;;;4997750;28;19971;-78
2023/08/07 07:31:19;;;;;;;;;;;14.70;99.90;;;;;;5013895;28;19948;-80
2023/08/07 07:33:46;;;;;;;;;;;14.50;99.90;;;;;;5015538;28;19921;-78
2023/08/07 07:36:15;;;;;;;;;;;14.30;99.90;;;;;;5015549;28;19921;-79
2023/08/07 07:38:40;;;;;;;;;;;14.20;99.90;;;;;;5014311;28;20008;-79
2023/08/07 07:41:10;;;;;;;;;;;14.00;99.90;;;;;;5014060;28;20326;-77
2023/08/07 07:43:35;;;;;;;;;;;13.90;99.90;;;;;;5015522;28;20385;-77
2023/08/07 07:46:01;;;;;;;;;;;13.90;99.90;;;;;;5015497;28;19953;-78
2023/08/07 07:48:37;;;;;;;;;;;13.80;99.90;;;;;;5015487;28;19989;-80
2023/08/07 07:51:03;;;;;;;;;;;13.80;99.90;;;;;;5013722;28;19971;-80
2023/08/07 07:53:29;;;;;;;;;;;13.80;99.90;;;;;;5015531;28;20359;-80
2023/08/07 07:55:55;;;;;;;;;;;13.90;99.90;;;;;;5014523;28;19921;-79
2023/08/07 07:58:20;;;;;;;;;;;14.00;99.90;;;;;;5014242;28;20056;-79
2023/08/07 08:00:46;;;;;;;;;;;14.10;99.90;;;;;;5015437;28;19922;-80
2023/08/07 08:03:12;;;;;;;;;;;14.20;99.90;;;;;;5015012;28;19921;-79
2023/08/07 08:05:38;;;;;;;;;;;14.30;99.90;;;;;;5014501;28;19921;-81
2023/08/07 08:08:03;;;;;;;;;;;14.50;99.90;;;;;;5017040;28;19925;-77
2023/08/07 08:10:29;;;;;;;;;;;14.70;99.90;;;;;;5035004;28;19928;-77
2023/08/07 08:12:55;;;;;;;;;;;14.70;99.90;;;;;;5034858;28;19924;-78
2023/08/07 08:15:21;;;;;;;;;;;14.70;99.90;;;;;;5034720;28;19968;-81
2023/08/07 08:17:47;;;;;;;;;;;14.40;99.90;;;;;;5017416;28;20388;-81
2023/08/07 08:20:15;;;;;;;;;;;14.30;99.90;;;;;;5034437;28;19929;-80
2023/08/07 08:22:41;;;;;;;;;;;14.10;99.90;;;;;;4992124;28;19960;-78
2023/08/07 08:25:07;;;;;;;;;;;13.90;99.90;;;;;;5006983;28;19928;-80
2023/08/07 08:27:33;;;;;;;;;;;13.80;99.90;;;;;;5034105;28;19925;-77
2023/08/07 08:29:58;;;;;;;;;;;13.80;99.90;;;;;;5034950;28;19925;-78
2023/08/07 08:32:24;;;;;;;;;;;13.70;99.90;;;;;;5017169;28;19971;-79
2023/08/07 08:34:50;;;;;;;;;;;13.70;99.90;;;;;;5034280;28;19921;-79
2023/08/07 08:37:16;;;;;;;;;;;13.80;99.90;;;;;;5034889;28;19921;-78
2023/08/07 08:39:41;;;;;;;;;;;13.80;99.90;;;;;;5016907;28;20379;-77
2023/08/07 08:42:10;;;;;;;;;;;13.80;99.90;;;;;;5034271;28;19921;-80
2023/08/07 08:44:38;;;;;;;;;;;13.90;99.90;;;;;;5034494;28;19921;-77
2023/08/07 08:47:04;;;;;;;;;;;13.90;99.90;;;;;;5016651;28;19926;-78
2023/08/07 08:49:35;;;;;;;;;;;14.00;99.90;;;;;;5016426;28;20331;-79
2023/08/07 08:52:01;;;;;;;;;;;14.00;99.90;;;;;;5016454;28;19921;-77
2023/08/07 08:54:28;;;;;;;;;;;14.10;99.90;;;;;;5034847;28;19921;-81
2023/08/07 08:56:55;;;;;;;;;;;14.30;99.90;;;;;;5034595;28;20004;-77
2023/08/07 08:59:21;;;;;;;;;;;14.50;99.90;;;;;;5016222;28;19928;-78
2023/08/07 09:01:48;;;;;;;;;;;14.60;99.90;;;;;;5016409;28;19921;-79
2023/08/07 09:04:14;;;;;;;;;;;14.70;99.90;;;;;;5034876;28;19921;-77
2023/08/07 09:06:39;;;;;;;;;;;14.80;99.90;;;;;;5033941;28;19925;-79
2023/08/07 09:09:06;;;;;;;;;;;14.80;99.90;;;;;;5016116;28;19928;-80
2023/08/07 09:11:33;;;;;;;;;;;14.90;99.90;;;;;;5033871;28;19928;-77
2023/08/07 09:14:00;;;;;;;;;;;15.00;99.90;;;;;;5034219;28;19921;-77
2023/08/07 09:16:26;;;;;;;;;;;15.10;99.90;;;;;;5034402;28;19921;-81
2023/08/07 09:18:54;;;;;;;;;;;15.30;99.90;;;;;;5037168;28;20388;-79
2023/08/07 09:21:20;;;;;;;;;;;15.40;99.90;;;;;;5037757;28;19925;-79
2023/08/07 09:23:45;;;;;;;;;;;15.50;99.90;;;;;;5035265;28;19956;-78
2023/08/07 09:26:11;;;;;;;;;;;15.40;99.90;;;;;;5011210;28;19947;-76
2023/08/07 09:28:38;;;;;;;;;;;15.30;99.90;;;;;;5026123;28;19926;-78
2023/08/07 09:31:06;;;;;;;;;;;15.20;99.90;;;;;;4984308;28;20336;-79
2023/08/07 09:33:31;;;;;;;;;;;15.10;99.90;;;;;;5000326;28;20360;-77
2023/08/07 09:36:00;;;;;;;;;;;15.00;99.90;;;;;;5017749;28;19972;-77
2023/08/07 09:38:32;;;;;;;;;;;15.10;99.90;;;;;;5000014;28;19967;-78
2023/08/07 09:40:59;;;;;;;;;;;15.20;99.90;;;;;;5017228;28;19921;-79
2023/08/07 09:43:25;;;;;;;;;;;15.20;99.90;;;;;;5017661;28;19921;-78
2023/08/07 09:45:50;;;;;;;;;;;15.30;99.90;;;;;;5017138;28;19921;-76
2023/08/07 09:48:24;;;;;;;;;;;15.50;99.90;;;;;;5017885;28;19926;-79
2023/08/07 09:50:50;;;;;;;;;;;15.70;99.90;;;;;;4999668;28;19922;-78
2023/08/07 09:53:16;;;;;;;;;;;15.90;99.90;;;;;;4999827;28;19928;-78
2023/08/07 09:55:41;;;;;;;;;;;16.10;99.90;;;;;;5017632;28;20396;-76
2023/08/07 09:58:08;;;;;;;;;;;16.20;99.90;;;;;;5017723;28;19921;-78
2023/08/07 10:00:34;;;;;;;;;;;16.30;99.90;;;;;;4999794;28;19932;-77
2023/08/07 10:03:01;;;;;;;;;;;16.20;99.90;;;;;;5017630;28;19944;-78
2023/08/07 10:05:27;;;;;;;;;;;16.20;99.90;;;;;;5000809;28;19929;-78
2023/08/07 10:07:54;;;;;;;;;;;16.20;99.90;;;;;;5016999;28;19929;-77
2023/08/07 10:10:20;;;;;;;;;;;16.30;99.90;;;;;;5023183;28;20000;-78
2023/08/07 10:12:47;;;;;;;;;;;16.40;99.90;;;;;;5013978;28;20356;-79
2023/08/07 10:15:14;;;;;;;;;;;16.30;99.90;;;;;;5019012;28;19948;-76
2023/08/07 10:17:40;;;;;;;;;;;16.20;99.90;;;;;;5018601;28;19925;-76
2023/08/07 10:20:07;;;;;;;;;;;16.00;99.90;;;;;;5021221;28;19921;-75
2023/08/07 10:22:34;;;;;;;;;;;15.90;99.90;;;;;;4999082;28;19956;-76
2023/08/07 10:25:02;;;;;;;;;;;15.70;99.90;;;;;;4998882;28;19922;-79
2023/08/07 10:27:31;;;;;;;;;;;15.70;99.90;;;;;;5016446;28;19925;-77
2023/08/07 10:29:58;;;;;;;;;;;15.70;99.90;;;;;;5015572;28;19928;-76
2023/08/07 10:32:24;;;;;;;;;;;15.80;99.90;;;;;;4998733;28;19928;-78
2023/08/07 10:34:50;;;;;;;;;;;16.00;99.90;;;;;;4999003;28;20389;-78
2023/08/07 10:37:34;;;;;;;;;;;16.20;99.90;;;;;;4998700;28;20032;-76
2023/08/07 10:40:04;;;;;;;;;;;16.50;99.90;;;;;;4998897;28;19929;-75
2023/08/07 10:42:49;;;;;;;;;;;16.60;99.90;;;;;;5016029;28;19925;-73
2023/08/07 10:45:17;;;;;;;;;;;16.60;99.90;;;;;;5005409;28;19921;-80
2023/08/07 10:47:42;;;;;;;;;;;16.50;99.90;;;;;;5014791;28;19976;-77
2023/08/07 10:50:09;;;;;;;;;;;16.60;99.90;;;;;;5015966;28;19921;-75
2023/08/07 10:52:38;;;;;;;;;;;16.70;99.90;;;;;;5014935;28;19921;-80
2023/08/07 10:55:12;;;;;;;;;;;16.70;99.90;;;;;;4998555;28;20059;-77
2023/08/07 10:57:39;;;;;;;;;;;16.60;99.90;;;;;;4999408;28;19944;-77
2023/08/07 11:00:06;;;;;;;;;;;16.40;99.90;;;;;;5015927;28;19921;-78
2023/08/07 11:02:33;;;;;;;;;;;16.40;99.90;;;;;;4998091;28;19922;-78
2023/08/07 11:04:59;;;;;;;;;;;16.40;99.90;;;;;;5015768;28;19921;-77
2023/08/07 11:07:26;;;;;;;;;;;16.40;99.90;;;;;;5015738;28;20270;-78
2023/08/07 11:09:51;;;;;;;;;;;16.40;99.90;;;;;;5016131;28;19945;-77
2023/08/07 11:12:17;;;;;;;;;;;16.40;99.90;;;;;;4998597;28;20381;-75
2023/08/07 11:14:42;;;;;;;;;;;16.40;99.90;;;;;;5015742;28;20397;-78
2023/08/07 11:17:09;;;;;;;;;;;16.50;99.90;;;;;;5015752;28;19921;-76
2023/08/07 11:19:35;;;;;;;;;;;16.70;99.90;;;;;;4981919;28;19928;-77
2023/08/07 11:22:00;;;;;;;;;;;17.00;99.90;;;;;;4997908;28;20016;-77
2023/08/07 11:24:27;;;;;;;;;;;17.10;99.90;;;;;;4998313;28;19922;-78
2023/08/07 11:26:55;;;;;;;;;;;17.00;99.90;;;;;;5014186;28;19975;-77
2023/08/07 11:29:21;;;;;;;;;;;17.00;99.90;;;;;;4997877;28;19921;-79
2023/08/07 11:31:47;;;;;;;;;;;17.10;99.90;;;;;;4997654;28;20345;-77
2023/08/07 11:34:13;;;;;;;;;;;17.00;99.90;;;;;;5015221;28;19922;-77
2023/08/07 11:36:42;;;;;;;;;;;16.90;99.90;;;;;;4998605;28;19928;-77
2023/08/07 11:39:08;;;;;;;;;;;16.80;99.90;;;;;;5013946;28;20436;-78
2023/08/07 11:41:33;;;;;;;;;;;16.80;99.90;;;;;;5013614;28;20021;-76
2023/08/07 11:43:59;;;;;;;;;;;16.80;99.90;;;;;;4997759;28;19932;-76
2023/08/07 11:46:25;;;;;;;;;;;16.90;99.90;;;;;;4997698;28;20365;-77
2023/08/07 11:48:51;;;;;;;;;;;16.80;99.90;;;;;;5013818;28;19933;-78
2023/08/07 11:51:19;;;;;;;;;;;16.90;99.90;;;;;;4997297;28;19925;-75
2023/08/07 11:53:45;;;;;;;;;;;17.10;99.90;;;;;;5014837;28;20285;-77
2023/08/07 11:56:14;;;;;;;;;;;17.10;99.90;;;;;;5014731;28;19922;-78
2023/08/07 11:58:40;;;;;;;;;;;17.10;99.90;;;;;;4997375;28;19933;-76
2023/08/07 12:01:10;;;;;;;;;;;17.00;99.90;;;;;;4981207;28;19921;-80
2023/08/07 12:03:40;;;;;;;;;;;16.90;99.90;;;;;;5014735;28;20373;-78
2023/08/07 12:06:06;;;;;;;;;;;16.80;99.90;;;;;;5014602;28;20301;-75
2023/08/07 12:08:33;;;;;;;;;;;16.60;99.90;;;;;;5014490;28;19929;-74
2023/08/07 12:11:01;;;;;;;;;;;16.50;99.90;;;;;;5013632;28;19921;-75
2023/08/07 12:13:29;;;;;;;;;;;16.40;99.90;;;;;;5000395;28;19921;-75
2023/08/07 12:15:56;;;;;;;;;;;16.30;99.90;;;;;;4980975;28;20381;-76
2023/08/07 12:18:23;;;;;;;;;;;16.10;99.90;;;;;;5014582;28;19929;-78
2023/08/07 12:20:49;;;;;;;;;;;15.90;99.90;;;;;;5008895;28;20364;-78
2023/08/07 12:23:16;;;;;;;;;;;15.80;99.90;;;;;;5013627;28;20288;-78
2023/08/07 12:25:42;;;;;;;;;;;15.90;99.90;;;;;;5008005;28;19921;-78
2023/08/07 12:28:07;;;;;;;;;;;15.80;99.90;;;;;;4996716;28;19952;-79
2023/08/07 12:30:36;;;;;;;;;;;15.90;99.90;;;;;;5008155;28;19931;-77
2023/08/07 12:33:04;;;;;;;;;;;15.80;99.90;;;;;;5009677;28;19921;-80
2023/08/07 12:35:30;;;;;;;;;;;15.50;99.90;;;;;;5012915;28;19965;-77
2023/08/07 12:37:55;;;;;;;;;;;15.20;99.90;;;;;;5014232;28;19921;-79
2023/08/07 12:40:22;;;;;;;;;;;14.90;99.90;;;;;;5014247;28;20004;-78
2023/08/07 12:42:51;;;;;;;;;;;14.70;99.90;;;;;;5012808;28;20008;-78
2023/08/07 12:45:18;;;;;;;;;;;14.70;99.90;;;;;;5013126;28;19952;-77
2023/08/07 12:47:44;;;;;;;;;;;14.70;99.90;;;;;;5013152;28;19929;-76
2023/08/07 12:50:10;;;;;;;;;;;14.80;99.90;;;;;;5013983;28;19948;-78
2023/08/07 12:52:35;;;;;;;;;;;14.80;99.90;;;;;;4995971;28;20362;-78
2023/08/07 12:55:01;;;;;;;;;;;15.00;99.90;;;;;;5013856;28;19929;-78
2023/08/07 12:57:27;;;;;;;;;;;15.20;99.90;;;;;;5016536;28;20353;-79
2023/08/07 12:59:52;;;;;;;;;;;15.30;99.90;;;;;;5033932;28;19971;-79
2023/08/07 13:02:18;;;;;;;;;;;15.40;99.90;;;;;;5016394;28;19930;-78
2023/08/07 13:04:43;;;;;;;;;;;15.20;99.90;;;;;;5033746;28;20023;-78
2023/08/07 13:07:09;;;;;;;;;;;15.10;99.90;;;;;;5033777;28;19979;-78
2023/08/07 13:09:35;;;;;;;;;;;15.00;99.90;;;;;;5015844;28;19925;-78
2023/08/07 13:12:00;;;;;;;;;;;14.90;99.90;;;;;;5034096;28;19971;-78
2023/08/07 13:14:26;;;;;;;;;;;14.80;99.90;;;;;;5033828;28;19979;-78
2023/08/07 13:16:52;;;;;;;;;;;14.80;99.90;;;;;;5033607;28;19921;-79
2023/08/07 13:19:17;;;;;;;;;;;14.80;99.90;;;;;;5033714;28;19936;-79
2023/08/07 13:21:43;;;;;;;;;;;14.90;99.90;;;;;;5033258;28;20372;-78
2023/08/07 13:24:09;;;;;;;;;;;14.90;99.90;;;;;;5016424;28;20323;-78
2023/08/07 13:26:34;;;;;;;;;;;14.90;99.90;;;;;;5016401;28;20221;-78
2023/08/07 13:29:00;;;;;;;;;;;14.80;99.90;;;;;;5015983;28;19925;-79
2023/08/07 13:31:26;;;;;;;;;;;14.90;99.90;;;;;;5016396;28;19925;-80
2023/08/07 13:33:52;;;;;;;;;;;15.00;99.90;;;;;;5033446;28;19929;-80
2023/08/07 13:36:18;;;;;;;;;;;15.10;99.90;;;;;;5029045;28;20312;-76
2023/08/07 13:38:43;;;;;;;;;;;15.10;99.90;;;;;;5028213;28;19976;-78
2023/08/07 13:41:09;;;;;;;;;;;15.00;99.90;;;;;;5012647;28;20000;-75
2023/08/07 13:43:34;;;;;;;;;;;15.00;99.90;;;;;;5022436;28;20373;-79
2023/08/07 13:46:00;;;;;;;;;;;15.10;99.90;;;;;;5004575;28;19928;-77
2023/08/07 13:48:27;;;;;;;;;;;15.20;99.90;;;;;;5033320;28;19925;-77
2023/08/07 13:50:53;;;;;;;;;;;15.30;99.90;;;;;;5012678;28;19961;-73
2023/08/07 13:53:19;;;;;;;;;;;15.20;99.90;;;;;;5005331;28;20126;-77
2023/08/07 13:55:46;;;;;;;;;;;15.20;99.90;;;;;;4999177;28;19943;-77
2023/08/07 13:58:12;;;;;;;;;;;15.20;99.90;;;;;;5015690;28;19928;-75
2023/08/07 14:00:38;;;;;;;;;;;15.20;99.90;;;;;;5033276;28;19921;-76
2023/08/07 14:03:04;;;;;;;;;;;15.20;99.90;;;;;;5015552;28;19921;-73
2023/08/07 14:05:29;;;;;;;;;;;15.40;99.90;;;;;;5019196;28;19925;-77
2023/08/07 14:07:57;;;;;;;;;;;15.50;99.90;;;;;;5018976;28;20289;-76
2023/08/07 14:10:22;;;;;;;;;;;15.50;99.90;;;;;;5019228;28;19921;-75
2023/08/07 14:12:48;;;;;;;;;;;15.40;99.90;;;;;;5036649;28;19954;-77
2023/08/07 14:15:13;;;;;;;;;;;15.30;99.90;;;;;;5018908;28;19947;-77
2023/08/07 14:17:39;;;;;;;;;;;15.20;99.90;;;;;;5036428;28;20023;-78
2023/08/07 14:20:05;;;;;;;;;;;15.20;99.90;;;;;;5030264;28;20339;-75
2023/08/07 14:22:41;;;;;;;;;;;15.20;99.90;;;;;;5016200;28;19921;-79
2023/08/07 14:25:07;;;;;;;;;;;15.20;99.90;;;;;;4959553;28;19970;-75
2023/08/07 14:27:33;;;;;;;;;;;15.20;99.90;;;;;;5018451;28;19932;-74
2023/08/07 14:29:59;;;;;;;;;;;15.20;99.90;;;;;;5002296;28;19928;-80
2023/08/07 14:32:24;;;;;;;;;;;15.30;99.90;;;;;;5018992;28;19921;-77
2023/08/07 14:34:50;;;;;;;;;;;15.50;99.90;;;;;;5018449;28;19921;-76
2023/08/07 14:37:15;;;;;;;;;;;15.60;99.90;;;;;;5002144;28;19922;-77
2023/08/07 14:39:41;;;;;;;;;;;15.60;99.90;;;;;;5002238;28;20008;-75
2023/08/07 14:42:07;;;;;;;;;;;15.70;99.90;;;;;;5018196;28;19925;-78
2023/08/07 14:44:32;;;;;;;;;;;15.80;99.90;;;;;;5019232;28;20007;-76
2023/08/07 14:46:58;;;;;;;;;;;15.90;99.90;;;;;;5018286;28;19943;-76
2023/08/07 14:49:24;;;;;;;;;;;16.10;99.90;;;;;;5018225;28;20281;-77
2023/08/07 14:51:49;;;;;;;;;;;16.30;99.90;;;;;;5018265;28;20281;-76
2023/08/07 14:54:15;;;;;;;;;;;16.50;99.90;;;;;;5018510;28;20363;-77
2023/08/07 14:56:40;;;;;;;;;;;16.50;99.90;;;;;;5035718;28;20019;-75
2023/08/07 14:59:06;;;;;;;;;;;16.40;99.90;;;;;;5017980;28;19921;-76
2023/08/07 15:01:32;;;;;;;;;;;16.30;99.90;;;;;;5035673;28;19922;-79
2023/08/07 15:03:57;;;;;;;;;;;16.30;99.90;;;;;;5018155;28;19921;-75
2023/08/07 15:06:23;;;;;;;;;;;16.20;99.90;;;;;;5001490;28;19925;-77
2023/08/07 15:08:48;;;;;;;;;;;16.30;99.90;;;;;;5018102;28;19929;-77
2023/08/07 15:11:14;;;;;;;;;;;16.20;99.90;;;;;;5018518;28;20280;-77
2023/08/07 15:13:40;;;;;;;;;;;16.20;99.90;;;;;;5035561;28;20396;-77
2023/08/07 15:16:05;;;;;;;;;;;16.20;99.90;;;;;;5034944;28;19921;-77
2023/08/07 15:18:31;;;;;;;;;;;16.20;99.90;;;;;;5017776;28;19921;-79
2023/08/07 15:20:59;;;;;;;;;;;16.20;99.90;;;;;;5017933;28;19921;-77
2023/08/07 15:23:24;;;;;;;;;;;16.20;99.90;;;;;;5017782;28;19921;-77
2023/08/07 15:25:50;;;;;;;;;;;16.20;99.90;;;;;;5018374;28;20415;-76
2023/08/07 15:28:16;;;;;;;;;;;16.30;99.90;;;;;;5017527;28;19932;-77
2023/08/07 15:30:50;;;;;;;;;;;16.30;99.90;;;;;;5017296;28;20548;-76
2023/08/07 15:33:16;;;;;;;;;;;16.20;99.90;;;;;;5001326;28;19921;-77
2023/08/07 15:35:42;;;;;;;;;;;16.30;99.90;;;;;;4997759;28;19921;-77
2023/08/07 15:38:10;;;;;;;;;;;16.40;99.90;;;;;;4997781;28;20262;-77
2023/08/07 15:40:39;;;;;;;;;;;16.70;99.90;;;;;;5015355;28;19921;-77
2023/08/07 15:43:05;;;;;;;;;;;16.80;99.90;;;;;;5016827;28;20430;-77
2023/08/07 15:45:30;;;;;;;;;;;16.70;99.90;;;;;;5017412;28;19969;-75
2023/08/07 15:47:56;;;;;;;;;;;16.60;99.90;;;;;;5034718;28;19925;-77
2023/08/07 15:50:22;;;;;;;;;;;16.50;99.90;;;;;;5017312;28;19921;-77
2023/08/07 15:52:48;;;;;;;;;;;16.40;99.90;;;;;;5017253;28;20329;-78
2023/08/07 15:55:13;;;;;;;;;;;16.30;99.90;;;;;;5017307;28;20020;-75
2023/08/07 15:57:39;;;;;;;;;;;16.40;99.90;;;;;;5016992;28;20420;-77
2023/08/07 16:00:05;;;;;;;;;;;16.40;99.90;;;;;;5017258;28;20274;-76
2023/08/07 16:02:31;;;;;;;;;;;16.40;99.90;;;;;;5000405;28;19921;-75
2023/08/07 16:04:57;;;;;;;;;;;16.50;99.90;;;;;;5016854;28;19970;-77
2023/08/07 16:07:22;;;;;;;;;;;16.50;99.90;;;;;;5016752;28;19925;-78
2023/08/07 16:09:48;;;;;;;;;;;16.40;99.90;;;;;;5017536;28;19966;-76
2023/08/07 16:12:13;;;;;;;;;;;16.60;99.90;;;;;;5034597;28;19921;-78
2023/08/07 16:14:39;;;;;;;;;;;16.90;99.90;;;;;;5017036;28;20287;-76
2023/08/07 16:17:04;;;;;;;;;;;17.00;99.90;;;;;;5016620;28;20470;-75
2023/08/07 16:19:30;;;;;;;;;;;17.20;99.90;;;;;;5016885;28;19921;-77
2023/08/07 16:21:55;;;;;;;;;;;17.10;99.90;;;;;;5034278;28;19921;-75
2023/08/07 16:24:21;;;;;;;;;;;17.20;99.90;;;;;;5034427;28;19920;-76
2023/08/07 16:26:46;;;;;;;;;;;17.20;99.90;;;;;;5015782;28;20100;-76
2023/08/07 16:29:12;;;;;;;;;;;17.10;99.90;;;;;;5016458;28;19948;-77
2023/08/07 16:31:38;;;;;;;;;;;16.90;99.90;;;;;;4999924;28;19921;-76
2023/08/07 16:34:03;;;;;;;;;;;16.80;99.90;;;;;;5034498;28;19921;-77
2023/08/07 16:36:29;;;;;;;;;;;16.90;99.90;;;;;;5034094;28;19936;-76
2023/08/07 16:38:54;;;;;;;;;;;17.00;99.90;;;;;;5016355;28;19921;-77
2023/08/07 16:41:20;;;;;;;;;;;17.00;99.90;;;;;;5016242;28;19932;-75
2023/08/07 16:43:45;;;;;;;;;;;16.90;99.90;;;;;;5016468;28;19922;-78
2023/08/07 16:46:11;;;;;;;;;;;16.90;99.90;;;;;;5016185;28;20373;-76
2023/08/07 16:48:36;;;;;;;;;;;17.00;99.90;;;;;;4999797;28;19925;-78
2023/08/07 16:51:05;;;;;;;;;;;17.00;99.90;;;;;;5034142;28;19921;-77
2023/08/07 16:53:31;;;;;;;;;;;16.90;99.90;;;;;;5016180;28;19921;-78
2023/08/07 16:55:57;;;;;;;;;;;16.80;99.90;;;;;;5016181;28;19928;-77
2023/08/07 16:58:22;;;;;;;;;;;16.70;99.90;;;;;;5033780;28;19921;-76
2023/08/07 17:00:48;;;;;;;;;;;16.70;99.90;;;;;;5015964;28;19921;-77
2023/08/07 17:03:14;;;;;;;;;;;16.70;99.90;;;;;;5016229;28;19922;-76
2023/08/07 17:05:40;;;;;;;;;;;16.70;99.90;;;;;;5015857;28;19979;-76
2023/08/07 17:08:05;;;;;;;;;;;16.80;99.90;;;;;;5015828;28;19925;-76
2023/08/07 17:10:32;;;;;;;;;;;16.90;99.90;;;;;;5016237;28;19921;-77
2023/08/07 17:12:58;;;;;;;;;;;16.90;99.90;;;;;;5015866;28;19929;-77
2023/08/07 17:15:23;;;;;;;;;;;16.80;99.90;;;;;;5015827;28;19921;-79